»·PEaware :: DAL1781 KSLC-KLAS

DAL1781 :: KSLC-KLAS

FLIGHT INFORMATION

Flight Status: Arrived
Operator:
Delta Air Lines
More flights by this operator :: More flights under this callsign
Pilot: Ben F. (2808)
Aircraft: BOEING 727-200
(B722)
More flights by this aircraft type
Origin: KSLC Salt Lake City Intl
United States
Destination: KLAS McCarran Intl
United States
More flights between these airports :: More routes between these airports
Route: +SLC4 FFU J9 MLF LUXOR2
File this flight plan on PilotEdge
Remarks:
Altitude:
(Current/Filed)
32,000ft
Speed:
(Current/Filed)
477kts
Departed: 24-Nov-18 08:49 AM
Arrived: 24-Nov-18 09:44 AM
Distance/Time
Traveled:
319nm/0:55
Distance/Time
To Go:
Arrived

Flight Plot

Page will automatically refresh every two minutes.

Flight plan parsing failed; only flown route is shown


Map Options




Map Legend


Flown Route
Filed Route
Departure Airport
Arrival Airport
Navaid (VOR, NDB)
Fix

Horizontal Profiles

Position Reports

Time Latitude Longitude Heading Altitude Ground
Speed
24-Nov-18 08:34 40.788495 -111.980699 283 4239ft 0kts
24-Nov-18 08:35 40.788495 -111.980699 283 4239ft 0kts
24-Nov-18 08:36 40.788495 -111.980699 283 4239ft 0kts
24-Nov-18 08:37 40.788495 -111.980699 283 4239ft 0kts
24-Nov-18 08:38 40.788495 -111.980699 283 4239ft 0kts
24-Nov-18 08:39 40.788473 -111.980575 283 4239ft 2kts
24-Nov-18 08:40 40.788204 -111.980065 350 4239ft 2kts
24-Nov-18 08:41 40.787991 -111.980106 19 4239ft 0kts
24-Nov-18 08:42 40.787991 -111.980106 19 4239ft 0kts
24-Nov-18 08:43 40.787991 -111.980106 19 4239ft 0kts
24-Nov-18 08:44 40.787991 -111.980106 19 4239ft 0kts
24-Nov-18 08:45 40.788066 -111.980071 19 4239ft 2kts
24-Nov-18 08:46 40.789440 -111.979695 42 4239ft 10kts
24-Nov-18 08:47 40.790603 -111.977152 359 4239ft 16kts
24-Nov-18 08:48 40.797968 -111.978011 354 4239ft 30kts
24-Nov-18 08:49 40.806627 -111.978581 359 4239ft 23kts
24-Nov-18 08:50 40.807095 -111.978501 23 4239ft 0kts
24-Nov-18 08:51 40.807073 -111.977086 143 4239ft 9kts
24-Nov-18 08:52 40.791880 -111.975071 178 4254ft 158kts
24-Nov-18 08:53 40.739187 -111.962815 173 5902ft 224kts
24-Nov-18 08:54 40.674327 -111.947211 188 8504ft 250kts
24-Nov-18 08:55 40.601120 -111.948213 187 10875ft 287kts
24-Nov-18 08:56 40.513408 -111.946649 187 12852ft 338kts
24-Nov-18 08:57 40.418732 -111.944713 188 15591ft 351kts
24-Nov-18 08:58 40.319835 -111.942833 189 17874ft 366kts
24-Nov-18 08:59 40.224932 -111.972097 213 19736ft 354kts
24-Nov-18 09:00 40.133842 -112.024647 214 21537ft 365kts
24-Nov-18 09:01 40.041942 -112.078406 215 23082ft 376kts
24-Nov-18 09:02 39.945902 -112.134517 215 24590ft 383kts
24-Nov-18 09:03 39.852835 -112.188778 216 25922ft 389kts
24-Nov-18 09:04 39.754212 -112.246096 216 27087ft 396kts
24-Nov-18 09:05 39.654125 -112.304075 216 28067ft 404kts
24-Nov-18 09:06 39.551243 -112.363447 217 29071ft 409kts
24-Nov-18 09:07 39.446649 -112.423639 217 29990ft 413kts
24-Nov-18 09:08 39.342904 -112.483119 217 31016ft 412kts
24-Nov-18 09:09 39.237848 -112.541690 217 31897ft 414kts
24-Nov-18 09:10 39.129398 -112.601028 216 31909ft 435kts
24-Nov-18 09:11 39.018453 -112.661410 215 31922ft 452kts
24-Nov-18 09:12 38.901481 -112.724992 210 31920ft 467kts
24-Nov-18 09:13 38.791204 -112.784374 210 31913ft 473kts
24-Nov-18 09:14 38.670702 -112.849213 209 31912ft 478kts
24-Nov-18 09:15 38.547845 -112.915116 209 31913ft 483kts
24-Nov-18 09:16 38.424067 -112.981114 209 31913ft 487kts
24-Nov-18 09:17 38.301520 -113.050781 212 31914ft 488kts
24-Nov-18 09:18 38.179499 -113.125375 212 31920ft 491kts
24-Nov-18 09:19 38.056862 -113.200337 212 31950ft 494kts
24-Nov-18 09:20 37.932971 -113.275919 212 31970ft 498kts
24-Nov-18 09:21 37.813885 -113.348300 212 31959ft 500kts
24-Nov-18 09:22 37.689284 -113.423761 212 31960ft 501kts
24-Nov-18 09:23 37.564256 -113.499192 212 31968ft 500kts
24-Nov-18 09:24 37.439854 -113.573974 212 32035ft 497kts
24-Nov-18 09:25 37.317557 -113.647251 212 31749ft 500kts
24-Nov-18 09:26 37.201083 -113.716730 211 29899ft 488kts
24-Nov-18 09:27 37.080303 -113.788638 211 27850ft 477kts
24-Nov-18 09:28 36.962125 -113.858758 208 25788ft 467kts
24-Nov-18 09:29 36.851897 -113.923723 208 23772ft 448kts
24-Nov-18 09:30 36.742548 -113.988095 208 21681ft 432kts
24-Nov-18 09:31 36.635964 -114.050654 208 19579ft 419kts
24-Nov-18 09:32 36.554068 -114.138444 240 17395ft 374kts
24-Nov-18 09:33 36.505259 -114.241485 243 14940ft 324kts
24-Nov-18 09:34 36.461274 -114.337508 243 12811ft 326kts
24-Nov-18 09:35 36.416427 -114.435468 243 11630ft 318kts
24-Nov-18 09:36 36.363233 -114.510947 222 12004ft 295kts
24-Nov-18 09:37 36.296884 -114.575993 221 10935ft 304kts
24-Nov-18 09:38 36.234721 -114.636291 221 9563ft 261kts
24-Nov-18 09:39 36.178000 -114.691937 220 8078ft 272kts
24-Nov-18 09:40 36.122303 -114.747521 220 7990ft 244kts
24-Nov-18 09:41 36.074172 -114.805780 250 7170ft 245kts
24-Nov-18 09:42 36.073412 -114.887576 270 5979ft 231kts
24-Nov-18 09:43 36.073675 -114.959014 270 4866ft 184kts
24-Nov-18 09:44 36.073719 -115.018432 270 3846ft 145kts
24-Nov-18 09:45 36.073717 -115.067599 270 3090ft 137kts
24-Nov-18 09:46 36.073676 -115.115133 270 2349ft 138kts
24-Nov-18 09:47 36.074372 -115.145250 297 2153ft 21kts
24-Nov-18 09:48 36.076128 -115.146557 3 2153ft 17kts
24-Nov-18 09:49 36.078241 -115.143037 93 2153ft 21kts
24-Nov-18 09:50 36.079764 -115.139517 353 2153ft 3kts
24-Nov-18 09:51 36.079807 -115.139523 353 2153ft 0kts
24-Nov-18 09:52 36.079807 -115.139523 353 2153ft 0kts
24-Nov-18 09:53 36.079807 -115.139523 353 2153ft 0kts
24-Nov-18 09:54 36.079807 -115.139523 353 2153ft 0kts
24-Nov-18 09:55 36.079807 -115.139523 353 2153ft 0kts
24-Nov-18 09:56 36.079807 -115.139523 353 2153ft 0kts
24-Nov-18 09:57 36.079807 -115.139523 353 2153ft 0kts
24-Nov-18 09:58 36.079807 -115.139523 353 2153ft 0kts
24-Nov-18 09:59 36.079807 -115.139523 353 2153ft 0kts
24-Nov-18 10:00 36.079807 -115.139523 353 2153ft 0kts
24-Nov-18 10:01 36.079807 -115.139523 353 2153ft 0kts

Navigation Log

Ident Type
Flight plan parsing failed, navigation log unavailable